createdAt,value
2022-12-29T00:02:26.013Z,1.65
2022-12-29T00:04:53.077Z,2.28
2022-12-29T00:07:19.679Z,3.67
2022-12-29T00:09:47.249Z,1.95
2022-12-29T00:12:13.799Z,2.40
2022-12-29T00:14:58.967Z,2.63
2022-12-29T00:17:25.505Z,1.90
2022-12-29T00:20:10.712Z,1.90
2022-12-29T00:22:55.769Z,3.38
2022-12-29T00:25:40.666Z,3.20
2022-12-29T00:28:28.485Z,2.97
2022-12-29T00:31:18.369Z,4.00
2022-12-29T00:34:03.495Z,1.40
2022-12-29T00:36:35.579Z,2.03
2022-12-29T00:39:26.376Z,6.60
2022-12-29T00:42:11.592Z,1.67
2022-12-29T00:44:38.160Z,0.60
2022-12-29T00:47:05.445Z,1.20
2022-12-29T00:49:33.220Z,1.33
2022-12-29T00:52:09.569Z,2.13
2022-12-29T00:54:38.226Z,3.65
2022-12-29T00:57:07.283Z,0.82
2022-12-29T00:59:36.475Z,1.63
2022-12-29T01:02:03.771Z,2.97
2022-12-29T01:04:30.404Z,2.58
2022-12-29T01:06:57.217Z,0.60
2022-12-29T01:09:42.369Z,0.95
2022-12-29T01:12:10.630Z,2.47
2022-12-29T01:14:38.096Z,1.92
2022-12-29T01:17:05.695Z,2.35
2022-12-29T01:19:33.378Z,0.80
2022-12-29T01:22:00.987Z,1.35
2022-12-29T01:24:28.384Z,1.00
2022-12-29T01:26:55.587Z,1.77
2022-12-29T01:29:22.922Z,2.17
2022-12-29T01:31:50.673Z,2.47
2022-12-29T01:34:18.071Z,2.70
2022-12-29T01:36:44.857Z,1.48
2022-12-29T01:39:12.780Z,2.85
2022-12-29T01:41:39.491Z,2.17
2022-12-29T01:44:43.619Z,2.25
2022-12-29T01:47:10.640Z,1.70
2022-12-29T01:49:38.301Z,2.78
2022-12-29T01:52:08.360Z,2.45
2022-12-29T01:54:44.501Z,2.45
2022-12-29T01:57:17.641Z,3.17
2022-12-29T01:59:56.179Z,3.03
2022-12-29T02:02:25.553Z,2.45
2022-12-29T02:05:12.329Z,1.98
2022-12-29T02:07:39.758Z,1.35
2022-12-29T02:10:06.852Z,2.85
2022-12-29T02:12:34.625Z,1.48
2022-12-29T02:15:04.301Z,1.75
2022-12-29T02:17:58.226Z,1.83
2022-12-29T02:21:17.238Z,3.03
2022-12-29T02:24:16.944Z,1.25
2022-12-29T02:26:59.126Z,1.88
2022-12-29T02:30:03.165Z,2.25
2022-12-29T02:32:50.061Z,1.30
2022-12-29T02:35:55.768Z,2.00
2022-12-29T02:38:33.142Z,1.25
2022-12-29T02:41:10.900Z,0.65
2022-12-29T02:43:51.076Z,4.15
2022-12-29T02:46:30.133Z,1.90
2022-12-29T02:49:07.289Z,1.45
2022-12-29T02:52:11.429Z,1.65
2022-12-29T02:54:51.636Z,1.20
2022-12-29T02:57:33.906Z,2.63
2022-12-29T03:00:21.855Z,3.95
2022-12-29T03:03:35.365Z,4.57
2022-12-29T03:09:32.095Z,1.98
2022-12-29T03:13:20.446Z,4.00
2022-12-29T03:16:01.035Z,2.05
2022-12-29T03:18:35.667Z,2.40
2022-12-29T03:21:09.065Z,2.05
2022-12-29T03:23:38.277Z,3.13
2022-12-29T03:26:11.762Z,2.92
2022-12-29T03:28:46.473Z,0.85
2022-12-29T03:31:20.073Z,1.52
2022-12-29T03:33:49.872Z,2.05
2022-12-29T03:36:29.086Z,4.35
2022-12-29T03:39:07.667Z,1.75
2022-12-29T03:41:35.416Z,2.42
2022-12-29T03:44:03.690Z,1.70
2022-12-29T03:46:30.299Z,3.38
2022-12-29T03:48:57.171Z,2.75
2022-12-29T03:51:24.479Z,2.55
2022-12-29T03:53:51.260Z,1.42
2022-12-29T03:56:18.004Z,0.90
2022-12-29T03:58:45.184Z,3.08
2022-12-29T04:01:16.589Z,1.35
2022-12-29T04:03:45.509Z,1.17
2022-12-29T04:06:12.550Z,2.08
2022-12-29T04:08:46.143Z,2.63
2022-12-29T04:11:12.750Z,2.20
2022-12-29T04:13:41.883Z,2.65
2022-12-29T04:16:10.718Z,2.50
2022-12-29T04:18:37.339Z,2.20
2022-12-29T04:21:05.440Z,3.65
2022-12-29T04:23:37.167Z,1.98
2022-12-29T04:26:08.520Z,1.63
2022-12-29T04:28:39.659Z,3.15
2022-12-29T04:31:24.915Z,4.00
2022-12-29T04:33:52.105Z,4.78
2022-12-29T04:36:19.298Z,4.03
2022-12-29T04:38:46.135Z,3.63
2022-12-29T04:41:13.478Z,4.32
2022-12-29T04:43:40.244Z,2.38
2022-12-29T04:46:15.596Z,3.40
2022-12-29T04:49:11.331Z,2.45
2022-12-29T04:51:55.560Z,3.67
2022-12-29T04:54:22.974Z,3.88
2022-12-29T04:56:56.581Z,3.00
2022-12-29T04:59:24.506Z,4.70
2022-12-29T05:01:54.809Z,3.45
2022-12-29T05:04:22.433Z,2.42
2022-12-29T05:06:49.141Z,7.90
2022-12-29T05:09:16.509Z,5.95
2022-12-29T05:11:45.395Z,3.95
2022-12-29T05:14:11.961Z,6.50
2022-12-29T05:16:38.778Z,5.55
2022-12-29T05:19:05.849Z,5.70
2022-12-29T05:21:33.201Z,5.45
2022-12-29T05:24:00.314Z,6.03
2022-12-29T05:26:27.746Z,7.47
2022-12-29T05:29:17.580Z,5.53
2022-12-29T05:31:45.602Z,5.50
2022-12-29T05:34:12.693Z,8.23
2022-12-29T05:36:40.609Z,7.40
2022-12-29T05:39:09.493Z,6.20
2022-12-29T05:41:37.193Z,5.82
2022-12-29T05:44:15.968Z,6.72
2022-12-29T05:47:14.152Z,7.38
2022-12-29T05:50:01.951Z,5.32
2022-12-29T05:52:54.492Z,5.47
2022-12-29T05:55:21.424Z,7.82
2022-12-29T05:57:50.847Z,4.47
2022-12-29T06:00:17.694Z,5.75
2022-12-29T06:02:46.917Z,4.70
2022-12-29T06:05:15.584Z,5.68
2022-12-29T06:07:42.249Z,5.57
2022-12-29T06:10:09.365Z,6.97
2022-12-29T06:12:43.709Z,5.07
2022-12-29T06:15:11.209Z,5.80
2022-12-29T06:17:40.299Z,4.05
2022-12-29T06:20:07.647Z,6.00
2022-12-29T06:22:34.565Z,9.75
2022-12-29T06:25:05.217Z,4.88
2022-12-29T06:27:33.535Z,4.95
2022-12-29T06:30:00.905Z,4.53
2022-12-29T06:32:28.236Z,6.85
2022-12-29T06:35:00.351Z,5.30
2022-12-29T06:37:30.011Z,4.40
2022-12-29T06:39:59.366Z,3.55
2022-12-29T06:42:36.224Z,6.88
2022-12-29T06:45:21.889Z,3.65
2022-12-29T06:47:48.418Z,5.45
2022-12-29T06:50:15.073Z,4.22
2022-12-29T06:52:41.920Z,4.72
2022-12-29T06:55:08.811Z,4.45
2022-12-29T06:57:35.381Z,6.93
2022-12-29T07:02:43.259Z,3.53
2022-12-29T07:05:11.130Z,6.72
2022-12-29T07:07:37.798Z,6.15
2022-12-29T07:10:04.701Z,5.35
2022-12-29T07:12:31.330Z,6.30
2022-12-29T07:14:57.841Z,6.22
2022-12-29T07:17:24.365Z,6.90
2022-12-29T07:19:50.862Z,4.90
2022-12-29T07:22:17.397Z,6.88
2022-12-29T07:24:44.241Z,6.95
2022-12-29T07:27:11.789Z,5.30
2022-12-29T07:29:39.166Z,5.57
2022-12-29T07:32:06.274Z,5.45
2022-12-29T07:34:32.883Z,4.07
2022-12-29T07:36:59.426Z,5.75
2022-12-29T07:39:26.402Z,4.70
2022-12-29T07:41:52.974Z,6.88
2022-12-29T07:44:21.024Z,8.88
2022-12-29T07:46:55.217Z,6.05
2022-12-29T07:49:23.905Z,6.18
2022-12-29T07:51:50.566Z,12.45
2022-12-29T07:54:19.296Z,8.82
2022-12-29T07:56:46.923Z,6.22
2022-12-29T07:59:13.561Z,8.50
2022-12-29T08:01:40.267Z,9.23
2022-12-29T08:04:07.465Z,6.45
2022-12-29T08:06:34.177Z,7.28
2022-12-29T08:09:09.894Z,9.63
2022-12-29T08:11:41.223Z,10.55
2022-12-29T08:14:07.732Z,8.90
2022-12-29T08:16:34.388Z,5.88
2022-12-29T08:19:01.150Z,9.10
2022-12-29T08:21:30.772Z,9.82
2022-12-29T08:23:57.912Z,8.75
2022-12-29T08:26:24.526Z,8.35
2022-12-29T08:28:54.133Z,8.68
2022-12-29T08:31:20.921Z,14.35
2022-12-29T08:33:47.610Z,8.40
2022-12-29T08:36:14.504Z,16.88
2022-12-29T08:38:41.120Z,4.00
2022-12-29T08:41:07.802Z,7.55
2022-12-29T08:43:34.526Z,5.75
2022-12-29T08:46:01.234Z,9.48
2022-12-29T08:48:28.013Z,6.13
2022-12-29T08:50:54.989Z,13.02
2022-12-29T08:53:21.553Z,12.60
2022-12-29T08:55:58.009Z,6.53
2022-12-29T08:58:28.970Z,9.80
2022-12-29T09:00:57.742Z,8.43
2022-12-29T09:03:46.035Z,11.60
2022-12-29T09:06:12.440Z,13.20
2022-12-29T09:08:39.016Z,12.55
2022-12-29T09:11:19.439Z,9.82
2022-12-29T09:13:47.327Z,8.27
2022-12-29T09:16:14.429Z,14.40
2022-12-29T09:18:41.056Z,7.95
2022-12-29T09:21:08.142Z,10.88
2022-12-29T09:23:35.403Z,9.70
2022-12-29T09:26:03.750Z,10.20
2022-12-29T09:28:33.664Z,8.32
2022-12-29T09:31:00.659Z,8.27
2022-12-29T09:33:27.514Z,9.27
2022-12-29T09:35:58.740Z,8.60
2022-12-29T09:38:26.964Z,8.40
2022-12-29T09:41:14.694Z,10.50
2022-12-29T09:44:02.251Z,6.88
2022-12-29T09:46:34.467Z,14.90
2022-12-29T09:49:19.920Z,11.73
2022-12-29T09:51:51.916Z,10.77
2022-12-29T09:54:48.213Z,7.50
2022-12-29T09:57:24.438Z,12.30
2022-12-29T09:59:56.675Z,9.60
2022-12-29T10:02:32.627Z,9.85
2022-12-29T10:05:00.788Z,11.90
2022-12-29T10:07:44.118Z,9.75
2022-12-29T10:10:20.718Z,9.13
2022-12-29T10:13:25.642Z,14.38
2022-12-29T10:16:02.775Z,8.07
2022-12-29T10:18:40.822Z,7.65
2022-12-29T10:21:40.014Z,8.20
2022-12-29T10:24:11.331Z,8.23
2022-12-29T10:26:41.571Z,8.48
2022-12-29T10:29:20.723Z,7.28
2022-12-29T10:31:59.272Z,11.20
2022-12-29T10:34:40.480Z,3.80
2022-12-29T10:37:34.064Z,14.88
2022-12-29T10:40:13.721Z,8.85
2022-12-29T10:42:49.382Z,12.60
2022-12-29T10:45:17.786Z,12.10
2022-12-29T10:48:09.910Z,10.43
2022-12-29T10:50:43.637Z,12.13
2022-12-29T10:53:20.442Z,10.52
2022-12-29T10:55:48.021Z,10.27
2022-12-29T10:58:15.953Z,11.02
2022-12-29T11:00:44.218Z,13.43
2022-12-29T11:03:35.702Z,8.10
2022-12-29T11:06:09.890Z,8.73
2022-12-29T11:08:39.957Z,7.70
2022-12-29T11:11:09.676Z,12.57
2022-12-29T11:13:58.268Z,9.07
2022-12-29T11:16:33.753Z,9.45
2022-12-29T11:19:00.856Z,4.90
2022-12-29T11:21:29.031Z,8.07
2022-12-29T11:23:59.357Z,8.18
2022-12-29T11:26:31.948Z,9.43
2022-12-29T11:29:25.461Z,7.82
2022-12-29T11:31:59.093Z,7.30
2022-12-29T11:34:33.985Z,10.18
2022-12-29T11:37:11.095Z,9.02
2022-12-29T11:39:50.915Z,6.93
2022-12-29T11:42:20.851Z,7.93
2022-12-29T11:44:50.217Z,9.70
2022-12-29T11:47:31.988Z,8.05
2022-12-29T11:50:02.580Z,9.75
2022-12-29T11:52:34.168Z,9.73
2022-12-29T11:55:02.493Z,11.82
2022-12-29T11:57:30.083Z,8.80
2022-12-29T11:59:58.494Z,7.90
2022-12-29T12:02:37.289Z,8.05
2022-12-29T12:05:23.697Z,8.00
2022-12-29T12:07:55.906Z,9.93
2022-12-29T12:10:47.239Z,11.02
2022-12-29T12:13:30.652Z,11.15
2022-12-29T12:16:05.148Z,9.43
2022-12-29T12:18:38.777Z,11.40
2022-12-29T12:21:11.571Z,9.95
2022-12-29T12:24:23.108Z,12.18
2022-12-29T12:27:11.874Z,7.88
2022-12-29T12:29:44.312Z,10.63
2022-12-29T12:32:29.913Z,11.65
2022-12-29T12:34:56.858Z,10.50
2022-12-29T12:37:53.848Z,8.27
2022-12-29T12:40:32.991Z,12.95
2022-12-29T12:43:15.119Z,17.08
2022-12-29T12:46:19.348Z,10.25
2022-12-29T12:48:52.075Z,9.73
2022-12-29T12:54:23.659Z,9.10
2022-12-29T12:57:06.831Z,10.55
2022-12-29T12:59:44.456Z,11.70
2022-12-29T13:02:28.020Z,8.80
2022-12-29T13:05:09.803Z,10.80
2022-12-29T13:08:02.548Z,13.23
2022-12-29T13:10:54.694Z,12.02
2022-12-29T13:13:48.554Z,10.57
2022-12-29T13:16:29.762Z,11.02
2022-12-29T13:19:22.709Z,7.82
2022-12-29T13:22:19.428Z,8.65
2022-12-29T13:24:58.393Z,13.13
2022-12-29T13:27:54.119Z,9.45
2022-12-29T13:30:23.820Z,9.57
2022-12-29T13:33:05.740Z,9.50
2022-12-29T13:35:46.509Z,12.98
2022-12-29T13:38:25.192Z,11.50
2022-12-29T13:40:57.292Z,13.40
2022-12-29T13:43:26.003Z,8.60
2022-12-29T13:46:00.641Z,9.20
2022-12-29T13:48:38.212Z,7.82
2022-12-29T13:51:06.056Z,10.15
2022-12-29T13:54:26.869Z,6.70
2022-12-29T13:57:25.754Z,9.70
2022-12-29T14:00:25.878Z,5.95
2022-12-29T14:03:26.593Z,9.45
2022-12-29T14:06:18.022Z,8.18
2022-12-29T14:08:44.976Z,9.70
2022-12-29T14:11:15.404Z,7.97
2022-12-29T14:13:47.552Z,11.00
2022-12-29T14:16:35.337Z,9.32
2022-12-29T14:19:11.774Z,7.07
2022-12-29T14:21:39.040Z,12.35
2022-12-29T14:24:33.675Z,7.57
2022-12-29T14:27:00.261Z,11.95
2022-12-29T14:29:26.736Z,9.90
2022-12-29T14:31:53.917Z,10.60
2022-12-29T14:34:20.511Z,8.43
2022-12-29T14:36:55.232Z,10.05
2022-12-29T14:39:32.345Z,6.43
2022-12-29T14:42:10.889Z,9.30
2022-12-29T14:45:03.936Z,9.30
2022-12-29T14:47:45.622Z,8.77
2022-12-29T14:50:12.236Z,7.97
2022-12-29T14:52:54.041Z,8.20
2022-12-29T14:55:42.996Z,10.65
2022-12-29T14:58:29.912Z,10.40
2022-12-29T15:00:57.916Z,9.00
2022-12-29T15:03:43.981Z,11.27
2022-12-29T15:06:17.860Z,7.13
2022-12-29T15:08:55.545Z,11.52
2022-12-29T15:11:43.310Z,11.38
2022-12-29T15:14:37.680Z,16.17
2022-12-29T15:17:24.499Z,13.00
2022-12-29T15:19:51.116Z,13.65
2022-12-29T15:22:17.897Z,8.05
2022-12-29T15:24:45.748Z,11.88
2022-12-29T15:27:16.328Z,11.27
2022-12-29T15:29:45.545Z,10.60
2022-12-29T15:32:20.898Z,8.00
2022-12-29T15:34:50.321Z,13.07
2022-12-29T15:37:23.092Z,9.95
2022-12-29T15:39:50.546Z,13.02
2022-12-29T15:42:46.311Z,11.75
2022-12-29T15:45:14.456Z,11.07
2022-12-29T15:47:44.050Z,10.35
2022-12-29T15:50:28.572Z,9.00
2022-12-29T15:52:56.655Z,9.60
2022-12-29T15:55:30.975Z,10.68
2022-12-29T15:58:00.249Z,12.40
2022-12-29T16:00:32.747Z,10.85
2022-12-29T16:03:02.304Z,9.45
2022-12-29T16:05:35.075Z,11.65
2022-12-29T16:10:41.064Z,8.80
2022-12-29T16:13:25.074Z,4.75
2022-12-29T16:15:57.428Z,5.40
2022-12-29T16:18:28.008Z,4.03
2022-12-29T16:20:56.050Z,7.38
2022-12-29T16:23:31.189Z,6.45
2022-12-29T16:25:58.779Z,6.22
2022-12-29T16:28:45.169Z,3.08
2022-12-29T16:31:33.256Z,6.47
2022-12-29T16:34:10.957Z,4.60
2022-12-29T16:36:53.799Z,6.68
2022-12-29T16:41:50.317Z,6.70
2022-12-29T16:44:31.503Z,4.47
2022-12-29T16:47:01.441Z,6.80
2022-12-29T16:49:28.850Z,5.43
2022-12-29T16:51:55.926Z,8.05
2022-12-29T16:54:37.732Z,5.63
2022-12-29T16:57:05.258Z,4.47
2022-12-29T16:59:37.874Z,6.65
2022-12-29T17:04:35.866Z,12.30
2022-12-29T17:07:02.498Z,6.68
2022-12-29T17:09:30.409Z,4.18
2022-12-29T17:12:05.304Z,8.57
2022-12-29T17:14:56.366Z,10.37
2022-12-29T17:18:08.732Z,4.70
2022-12-29T17:20:38.397Z,5.18
2022-12-29T17:23:17.540Z,7.40
2022-12-29T17:25:49.359Z,6.10
2022-12-29T17:28:27.597Z,8.25
2022-12-29T17:31:02.885Z,5.43
2022-12-29T17:33:35.179Z,9.82
2022-12-29T17:36:01.698Z,10.25
2022-12-29T17:38:30.665Z,6.65
2022-12-29T17:40:58.439Z,5.82
2022-12-29T17:43:25.137Z,8.18
2022-12-29T17:45:56.838Z,11.63
2022-12-29T17:48:24.728Z,8.45
2022-12-29T17:50:53.193Z,8.20
2022-12-29T17:53:25.997Z,11.23
2022-12-29T17:58:25.236Z,6.05
2022-12-29T18:03:24.483Z,11.60
2022-12-29T18:05:51.189Z,7.43
2022-12-29T18:08:17.792Z,11.07
2022-12-29T18:10:44.474Z,9.27
2022-12-29T18:13:39.013Z,8.40
2022-12-29T18:16:12.279Z,9.63
2022-12-29T18:18:38.828Z,6.85
2022-12-29T18:21:05.644Z,9.82
2022-12-29T18:23:36.585Z,11.07
2022-12-29T18:26:07.639Z,9.65
2022-12-29T18:28:34.187Z,13.30
2022-12-29T18:31:01.739Z,7.15
2022-12-29T18:33:30.176Z,14.80
2022-12-29T18:36:02.264Z,21.38
2022-12-29T18:38:29.733Z,18.42
2022-12-29T18:40:58.055Z,13.45
2022-12-29T18:43:24.915Z,14.65
2022-12-29T18:45:51.751Z,15.82
2022-12-29T18:48:21.051Z,17.13
2022-12-29T18:50:51.612Z,16.73
2022-12-29T18:53:20.528Z,18.83
2022-12-29T18:55:47.141Z,18.23
2022-12-29T18:58:13.691Z,12.00
2022-12-29T19:00:40.648Z,13.40
2022-12-29T19:03:07.610Z,17.30
2022-12-29T19:05:38.750Z,11.02
2022-12-29T19:08:07.096Z,12.38
2022-12-29T19:10:34.602Z,16.83
2022-12-29T19:13:01.231Z,16.10
2022-12-29T19:15:30.622Z,13.35
2022-12-29T19:18:41.976Z,20.13
2022-12-29T19:20:47.503Z,15.15
2022-12-29T19:23:17.712Z,16.08
2022-12-29T19:25:45.203Z,21.98
2022-12-29T19:28:19.063Z,14.20
2022-12-29T19:30:51.624Z,12.57
2022-12-29T19:33:20.304Z,12.68
2022-12-29T19:35:46.913Z,17.00
2022-12-29T19:38:14.245Z,9.45
2022-12-29T19:40:47.451Z,14.77
2022-12-29T19:43:15.211Z,17.27
2022-12-29T19:45:43.447Z,16.83
2022-12-29T19:48:16.024Z,16.08
2022-12-29T19:53:11.448Z,12.60
2022-12-29T19:55:42.407Z,17.35
2022-12-29T19:58:08.953Z,13.25
2022-12-29T20:00:35.588Z,12.90
2022-12-29T20:03:02.219Z,17.58
2022-12-29T20:05:28.854Z,12.60
2022-12-29T20:07:55.385Z,13.93
2022-12-29T20:10:21.917Z,18.63
2022-12-29T20:12:48.481Z,14.35
2022-12-29T20:15:15.145Z,19.38
2022-12-29T20:20:28.150Z,18.55
2022-12-29T20:22:54.732Z,21.23
2022-12-29T20:28:08.601Z,16.02
2022-12-29T20:30:36.124Z,17.13
2022-12-29T20:33:07.766Z,14.93
2022-12-29T20:35:34.967Z,19.80
2022-12-29T20:38:01.408Z,18.17
2022-12-29T20:40:28.023Z,18.50
2022-12-29T20:42:55.620Z,16.08
2022-12-29T20:45:22.236Z,12.93
2022-12-29T20:47:48.825Z,16.20
2022-12-29T20:50:15.449Z,12.30
2022-12-29T20:52:41.985Z,19.00
2022-12-29T20:55:08.768Z,14.52
2022-12-29T20:57:56.955Z,15.85
2022-12-29T21:00:22.772Z,14.98
2022-12-29T21:02:49.971Z,13.15
2022-12-29T21:05:25.233Z,16.90
2022-12-29T21:07:53.274Z,16.08
2022-12-29T21:10:20.703Z,15.55
2022-12-29T21:12:47.711Z,12.88
2022-12-29T21:15:15.489Z,22.75
2022-12-29T21:17:43.343Z,15.88
2022-12-29T21:20:19.850Z,20.08
2022-12-29T21:22:49.876Z,14.18
2022-12-29T21:25:16.439Z,15.05
2022-12-29T21:27:44.040Z,14.77
2022-12-29T21:30:11.890Z,17.33
2022-12-29T21:32:38.779Z,13.35
2022-12-29T21:35:05.747Z,18.42
2022-12-29T21:37:32.311Z,10.48
2022-12-29T21:39:58.884Z,13.68
2022-12-29T21:42:27.503Z,10.27
2022-12-29T21:45:18.302Z,15.00
2022-12-29T21:48:05.270Z,12.93
2022-12-29T21:50:31.776Z,13.73
2022-12-29T21:52:58.352Z,16.63
2022-12-29T21:55:24.883Z,12.90
2022-12-29T21:58:11.128Z,10.13
2022-12-29T22:00:56.344Z,14.50
2022-12-29T22:03:41.620Z,10.63
2022-12-29T22:06:30.002Z,14.68
2022-12-29T22:09:15.132Z,12.95
2022-12-29T22:12:00.396Z,15.52
2022-12-29T22:14:27.302Z,12.88
2022-12-29T22:16:53.868Z,9.63
2022-12-29T22:19:20.443Z,15.57
2022-12-29T22:21:47.958Z,15.18
2022-12-29T22:24:14.523Z,15.95
2022-12-29T22:26:41.123Z,16.10
2022-12-29T22:29:07.797Z,16.48
2022-12-29T22:31:34.422Z,18.00
2022-12-29T22:34:02.915Z,12.80
2022-12-29T22:36:30.504Z,12.98
2022-12-29T22:38:57.130Z,10.30
2022-12-29T22:41:23.844Z,16.48
2022-12-29T22:43:50.515Z,21.00
2022-12-29T22:46:17.099Z,15.40
2022-12-29T22:48:43.644Z,17.50
2022-12-29T22:51:10.287Z,15.50
2022-12-29T22:53:36.831Z,16.42
2022-12-29T22:56:09.072Z,18.05
2022-12-29T22:58:38.898Z,13.90
2022-12-29T23:01:05.586Z,10.93
2022-12-29T23:03:32.220Z,15.10
2022-12-29T23:06:04.659Z,21.00
2022-12-29T23:08:34.413Z,14.48
2022-12-29T23:11:01.999Z,12.70
2022-12-29T23:13:28.808Z,11.73
2022-12-29T23:15:55.545Z,11.40
2022-12-29T23:18:22.166Z,13.35
2022-12-29T23:20:49.519Z,6.80
2022-12-29T23:23:46.454Z,12.10
2022-12-29T23:26:15.797Z,14.27
2022-12-29T23:28:42.652Z,7.70
2022-12-29T23:31:09.802Z,17.77
2022-12-29T23:33:36.846Z,12.82
2022-12-29T23:36:04.035Z,13.95
2022-12-29T23:38:30.637Z,11.70
2022-12-29T23:40:57.404Z,11.50
2022-12-29T23:43:23.976Z,9.45
2022-12-29T23:45:51.256Z,13.43
2022-12-29T23:48:18.857Z,16.15
2022-12-29T23:50:45.893Z,13.80
2022-12-29T23:53:13.214Z,10.90
2022-12-29T23:55:42.677Z,9.50
2022-12-29T23:58:09.657Z,12.32
